Página principal
METAR-TAF:

METAR-TAF

Aeroportos :

Burgos, Espanha

latitude: 42-22N, longitude: 003-38W, altura: 894 m

Observação actual do tempo

O boletim foi feito há 4 horas e 20 minutos, às 00:30 UTC
Vento 9 kt de nordeste
Temperatura 0°C
Humidade 80%
Pressão 1012 hPa
Visibilidade 10 km ou mais

METAR: LEBG 220030Z AUTO 04009KT 9999 BKN024/// OVC029/// M00/M03 Q1012

Hora: 05:50 (04:50 UTC)

Previsão

O boletim foi feito há 11 horas e 50 minutos, às 17:00 UTC
Previsão válida de 21 às 18 UTC a 22 às 03 UTC
Vento 15 kt de nor-nordeste
Visibilidade 10 km ou mais
Nuvens dispersasa uma altura de 2000 ft
Probabilidade 40% :
Temporariamente
de 21 às 18 UTC a 21 às 20 UTC
Vento 15 kt de nor-nordeste com rajadas de 25 kt
Temporariamente
de 21 às 20 UTC a 22 às 03 UTC
Nuvens fragmentadasa uma altura de 1400 ft

TAF: LEBG 211700Z 2118/2203 03015KT 9999 SCT020 PROB40 TEMPO 2118/2120 03015G25KT TEMPO 2120/2203 BKN014

Observações e previsões do tempo de mais de 4000 aeroportos (mensagens METAR e TAF).

As estações disponíveis são os pontos amarelos e vermelhos sobre o mapa.

Mova o rato sobre o mapa para ver o nome da estação.

Depois clique no ponto para visualizar as observações e previsões meteorológicas.

Para alterar o mapa : clique nos botões verdes com uma cruz preta para aumentar o zoom; no botão verde com uma pitada de zoom; ou nas setas verdes para mapas adjacentes.


METAR-TAF: